Time;durP1;ratioP1;P1;durP2;ratioP2;P2;SDS_P1;SDS_P2;PMS_P1;PMS_P2;Temp;Humidity;BMP_temperature;BMP_pressure;BME280_temperature;BME280_humidity;BME280_pressure;Samples;Min_cycle;Max_cycle;Signal;HPM_P1;HPM_P2
2022/01/31 00:01:09;;;;;;;9.03;2.67;;;13.30;79.20;;;;;;10125838;29;20268;-86
2022/01/31 00:06:12;;;;;;;6.27;2.70;;;13.30;79.30;;;;;;10154762;29;20741;-87
2022/01/31 00:11:16;;;;;;;6.33;2.40;;;13.40;79.00;;;;;;10155969;29;20235;-87
2022/01/31 00:16:24;;;;;;;10.13;2.20;;;13.40;78.50;;;;;;10139751;29;20654;-87
2022/01/31 00:21:28;;;;;;;6.43;2.83;;;13.60;78.20;;;;;;10154941;29;20636;-87
2022/01/31 00:26:31;;;;;;;10.03;2.80;;;13.50;77.90;;;;;;10175168;29;20271;-87
2022/01/31 00:31:33;;;;;;;8.37;3.00;;;13.50;78.00;;;;;;10193736;29;20267;-87
2022/01/31 00:36:36;;;;;;;6.43;3.20;;;13.50;77.80;;;;;;10177891;29;20262;-87
2022/01/31 00:41:38;;;;;;;7.77;3.30;;;13.50;78.10;;;;;;10193024;29;20235;-86
2022/01/31 00:46:46;;;;;;;6.50;3.07;;;13.50;77.80;;;;;;10209803;29;20718;-87
2022/01/31 00:51:49;;;;;;;6.20;2.30;;;13.50;77.70;;;;;;10210029;29;20305;-87
2022/01/31 00:56:52;;;;;;;9.57;3.00;;;13.50;77.60;;;;;;10177457;29;20325;-87
2022/01/31 01:01:54;;;;;;;4.57;2.27;;;13.60;77.30;;;;;;10176388;29;20238;-87
2022/01/31 01:06:57;;;;;;;4.90;2.10;;;13.50;77.40;;;;;;10192593;29;20254;-87
2022/01/31 01:12:00;;;;;;;11.17;3.50;;;13.50;77.30;;;;;;10175962;29;20310;-87
2022/01/31 01:17:02;;;;;;;8.10;3.13;;;13.50;77.40;;;;;;10191379;29;20262;-87
2022/01/31 01:22:06;;;;;;;8.00;2.30;;;13.40;77.80;;;;;;10191886;29;20270;-87
2022/01/31 01:27:10;;;;;;;10.63;2.87;;;13.40;77.70;;;;;;10208691;29;20811;-88
2022/01/31 01:32:13;;;;;;;10.93;2.43;;;13.40;77.90;;;;;;10191777;29;20266;-87
2022/01/31 01:37:18;;;;;;;11.50;4.10;;;13.30;78.30;;;;;;10191835;29;20258;-86
2022/01/31 01:42:20;;;;;;;7.07;2.73;;;13.10;78.60;;;;;;10191422;29;20219;-86
2022/01/31 01:47:25;;;;;;;8.20;2.50;;;13.20;78.70;;;;;;10175880;29;20207;-86
2022/01/31 01:52:27;;;;;;;6.23;2.33;;;13.20;78.50;;;;;;10175458;29;20240;-87
2022/01/31 01:57:30;;;;;;;10.13;3.33;;;13.40;78.20;;;;;;10190432;29;20311;-86
2022/01/31 02:02:35;;;;;;;7.00;2.63;;;13.40;77.90;;;;;;10175738;29;20704;-87
2022/01/31 02:07:40;;;;;;;6.83;2.17;;;13.30;78.20;;;;;;10191448;29;20265;-87
2022/01/31 02:12:47;;;;;;;10.40;2.93;;;13.40;77.80;;;;;;10190398;29;20313;-87
2022/01/31 02:18:10;;;;;;;8.97;2.30;;;13.40;77.80;;;;;;10190299;29;20317;-87
2022/01/31 02:23:15;;;;;;;10.50;2.40;;;13.30;75.00;;;;;;10190119;29;20257;-87
2022/01/31 02:28:28;;;;;;;6.03;2.80;;;13.30;78.00;;;;;;10194072;29;20254;-86
2022/01/31 02:33:31;;;;;;;10.43;3.30;;;13.40;77.80;;;;;;10182821;29;20587;-87
2022/01/31 02:38:34;;;;;;;9.53;3.50;;;13.50;77.20;;;;;;10182574;29;20309;-86
2022/01/31 02:43:39;;;;;;;9.07;4.03;;;13.50;77.20;;;;;;10197430;29;20263;-86
2022/01/31 02:48:51;;;;;;;13.07;4.07;;;13.50;76.90;;;;;;10198829;29;20242;-86
2022/01/31 02:53:55;;;;;;;8.53;3.90;;;13.50;76.90;;;;;;10198506;29;20238;-86
2022/01/31 02:58:58;;;;;;;8.67;3.10;;;13.40;76.90;;;;;;10181648;29;20250;-87
2022/01/31 03:04:07;;;;;;;12.47;4.33;;;13.40;77.10;;;;;;10198554;29;20195;-87
2022/01/31 03:09:09;;;;;;;8.13;3.70;;;13.30;77.10;;;;;;10199003;29;20211;-87
2022/01/31 03:14:16;;;;;;;9.73;3.37;;;13.30;77.30;;;;;;10201151;29;20550;-86
2022/01/31 03:19:25;;;;;;;9.17;3.00;;;13.20;77.50;;;;;;10218330;29;20294;-86
2022/01/31 03:24:35;;;;;;;6.90;3.43;;;13.40;77.20;;;;;;10212709;29;20210;-87
2022/01/31 03:29:38;;;;;;;5.43;2.27;;;13.40;76.90;;;;;;10208427;29;20239;-87
2022/01/31 03:34:41;;;;;;;10.90;3.10;;;13.40;77.10;;;;;;10249807;28;20223;-87
2022/01/31 03:39:43;;;;;;;7.80;3.30;;;13.40;76.70;;;;;;10248367;28;20207;-87
2022/01/31 03:44:47;;;;;;;7.47;3.13;;;13.40;77.00;;;;;;10249965;28;20187;-88
2022/01/31 03:49:51;;;;;;;6.23;2.67;;;13.40;76.90;;;;;;10249667;28;20242;-87
2022/01/31 03:54:56;;;;;;;6.63;3.00;;;13.50;76.80;;;;;;10248989;28;20203;-87
2022/01/31 04:00:00;;;;;;;8.27;3.40;;;13.50;76.50;;;;;;10249514;28;20234;-87
2022/01/31 04:05:03;;;;;;;10.30;3.47;;;13.50;76.40;;;;;;10249361;28;20231;-87
2022/01/31 04:10:05;;;;;;;9.00;2.93;;;13.40;76.70;;;;;;10249870;28;20187;-87
2022/01/31 04:15:08;;;;;;;7.40;3.47;;;13.40;76.80;;;;;;10249414;28;20215;-86
2022/01/31 04:20:11;;;;;;;5.67;2.57;;;13.40;76.90;;;;;;10209123;29;20223;-87
2022/01/31 04:25:43;;;;;;;8.50;2.97;;;13.40;76.50;;;;;;10202346;29;20207;-87
2022/01/31 04:30:45;;;;;;;5.23;2.13;;;13.50;76.50;;;;;;10217790;29;20258;-87
2022/01/31 04:35:48;;;;;;;8.23;2.40;;;13.50;76.30;;;;;;10205380;29;20207;-87
2022/01/31 04:40:50;;;;;;;9.70;3.23;;;13.40;76.20;;;;;;10201685;29;20252;-87
2022/01/31 04:45:55;;;;;;;5.17;2.00;;;13.40;76.20;;;;;;10217566;29;20759;-87
2022/01/31 04:50:58;;;;;;;4.37;2.17;;;13.40;76.10;;;;;;10219047;29;20818;-87
2022/01/31 04:56:01;;;;;;;6.60;2.10;;;13.50;75.90;;;;;;10200540;29;20681;-86
2022/01/31 05:01:04;;;;;;;10.23;3.00;;;13.50;75.80;;;;;;10183923;29;20302;-88
2022/01/31 05:06:08;;;;;;;5.27;2.23;;;13.50;75.70;;;;;;10184173;29;20232;-87
2022/01/31 05:11:12;;;;;;;7.07;2.70;;;13.50;75.50;;;;;;10187767;29;20239;-87
2022/01/31 05:16:15;;;;;;;8.17;3.20;;;13.40;75.60;;;;;;10183617;29;20296;-87
2022/01/31 05:21:18;;;;;;;9.93;2.30;;;13.40;75.40;;;;;;10191178;29;20256;-86
2022/01/31 05:26:20;;;;;;;5.80;2.90;;;13.40;75.30;;;;;;10187968;29;20230;-87
2022/01/31 05:31:23;;;;;;;8.37;2.63;;;13.50;75.20;;;;;;10177754;29;20607;-87
2022/01/31 05:36:26;;;;;;;5.73;1.87;;;13.50;75.20;;;;;;10191056;29;20278;-88
2022/01/31 05:41:28;;;;;;;10.10;2.27;;;13.40;75.30;;;;;;10209721;29;20224;-86
2022/01/31 05:46:31;;;;;;;4.57;2.10;;;13.30;75.30;;;;;;10208871;29;20214;-86
2022/01/31 05:51:46;;;;;;;10.27;3.03;;;13.20;75.60;;;;;;10192047;29;20227;-86
2022/01/31 05:56:50;;;;;;;11.10;3.43;;;11.60;65.40;;;;;;10212756;29;20265;-87
2022/01/31 06:01:53;;;;;;;11.57;2.40;;;11.90;68.00;;;;;;10208650;29;20674;-87
2022/01/31 06:06:56;;;;;;;10.60;3.50;;;12.30;66.70;;;;;;10207918;29;20242;-86
2022/01/31 06:12:01;;;;;;;11.73;2.73;;;12.50;67.00;;;;;;10191823;29;20639;-87
2022/01/31 06:17:04;;;;;;;13.10;3.27;;;12.60;67.70;;;;;;10190703;29;20683;-86
2022/01/31 06:22:06;;;;;;;5.40;2.33;;;12.60;68.30;;;;;;10175690;29;20199;-86
2022/01/31 06:27:09;;;;;;;7.13;2.77;;;12.80;68.60;;;;;;10207747;29;20266;-87
2022/01/31 06:32:11;;;;;;;5.43;2.13;;;12.70;69.30;;;;;;10189506;29;20219;-86
2022/01/31 06:37:14;;;;;;;10.07;3.07;;;12.80;69.90;;;;;;10189347;29;20635;-86
2022/01/31 06:42:16;;;;;;;9.43;3.93;;;12.80;70.70;;;;;;10187987;29;20624;-87
2022/01/31 06:47:19;;;;;;;8.60;3.03;;;12.80;71.00;;;;;;10168905;29;20242;-87
2022/01/31 06:52:23;;;;;;;7.43;2.53;;;12.70;71.80;;;;;;10177037;29;20242;-86
2022/01/31 06:57:33;;;;;;;6.67;2.43;;;12.80;72.10;;;;;;10153666;29;20276;-87
2022/01/31 07:02:35;;;;;;;6.77;2.60;;;12.80;72.60;;;;;;10188287;29;20227;-86
2022/01/31 07:07:38;;;;;;;9.43;2.87;;;12.40;74.00;;;;;;10184120;29;20310;-87
2022/01/31 07:12:48;;;;;;;7.60;2.03;;;12.30;74.80;;;;;;10180615;29;20616;-87
2022/01/31 07:17:50;;;;;;;4.33;2.00;;;12.50;74.80;;;;;;10172310;29;20283;-86
2022/01/31 07:23:00;;;;;;;7.13;2.70;;;12.40;75.30;;;;;;10208218;29;20224;-86
2022/01/31 07:28:07;;;;;;;4.97;2.90;;;12.30;76.20;;;;;;10185103;29;20289;-86
2022/01/31 07:33:14;;;;;;;9.07;2.87;;;12.40;76.40;;;;;;10175712;29;20247;-86
2022/01/31 07:38:18;;;;;;;18.60;5.07;;;12.60;76.50;;;;;;10211025;29;20286;-88
2022/01/31 07:43:20;;;;;;;17.73;5.10;;;11.60;68.50;;;;;;10211107;29;20736;-89
2022/01/31 07:48:26;;;;;;;20.93;5.70;;;11.70;67.80;;;;;;10227131;29;20277;-89
2022/01/31 07:53:28;;;;;;;13.63;5.47;;;11.90;66.90;;;;;;10226548;29;20566;-89
2022/01/31 07:58:30;;;;;;;22.10;5.57;;;12.10;66.70;;;;;;10211699;29;20275;-85
2022/01/31 08:03:34;;;;;;;15.23;4.73;;;11.70;66.60;;;;;;10177167;29;20243;-85
2022/01/31 08:08:37;;;;;;;10.00;4.67;;;12.10;67.80;;;;;;10211265;29;20238;-86
2022/01/31 08:13:39;;;;;;;15.57;4.80;;;12.50;68.40;;;;;;10226674;29;20620;-86
2022/01/31 08:18:44;;;;;;;11.87;4.43;;;12.80;68.70;;;;;;10200728;29;20262;-85
2022/01/31 08:23:47;;;;;;;18.50;4.47;;;13.00;69.30;;;;;;10158530;29;20299;-84
2022/01/31 08:28:59;;;;;;;11.33;4.83;;;12.90;70.50;;;;;;10197454;28;20258;-87
2022/01/31 08:39:20;;;;;;;12.93;4.97;;;13.40;71.40;;;;;;10183093;29;20682;-87
2022/01/31 08:44:23;;;;;;;10.43;4.20;;;13.30;71.90;;;;;;10186051;29;20271;-87
2022/01/31 08:49:25;;;;;;;13.63;4.03;;;13.70;71.80;;;;;;10189547;29;20303;-87
2022/01/31 08:54:28;;;;;;;12.30;4.97;;;13.90;71.80;;;;;;10174518;29;20207;-87
2022/01/31 08:59:32;;;;;;;13.83;4.47;;;13.80;72.40;;;;;;10172176;29;20275;-87
2022/01/31 09:04:47;;;;;;;8.90;3.90;;;13.80;72.70;;;;;;10187841;29;20230;-87
2022/01/31 09:09:54;;;;;;;12.00;4.97;;;13.90;73.00;;;;;;10176446;29;20227;-87
2022/01/31 09:14:58;;;;;;;10.57;4.13;;;13.70;74.00;;;;;;10176921;29;20219;-87
2022/01/31 09:20:00;;;;;;;7.93;3.73;;;13.60;74.60;;;;;;10190561;29;20242;-87
2022/01/31 09:25:03;;;;;;;11.57;4.43;;;13.80;74.70;;;;;;10173062;29;20287;-87
2022/01/31 09:30:08;;;;;;;9.53;4.57;;;13.90;75.00;;;;;;10156797;29;20259;-87
2022/01/31 09:35:10;;;;;;;8.87;3.43;;;14.00;74.70;;;;;;10189555;29;20235;-87
2022/01/31 09:40:18;;;;;;;12.93;4.20;;;14.10;74.90;;;;;;10187605;29;20271;-87
2022/01/31 09:45:36;;;;;;;8.90;3.57;;;14.00;75.80;;;;;;10190294;29;20568;-87
2022/01/31 09:50:38;;;;;;;10.33;3.27;;;13.90;76.40;;;;;;10190597;29;20203;-87
2022/01/31 09:55:42;;;;;;;18.60;5.60;;;13.90;75.30;;;;;;10159700;29;20682;-87
2022/01/31 10:00:44;;;;;;;8.90;3.70;;;13.70;72.70;;;;;;10173940;29;20329;-87
2022/01/31 10:05:46;;;;;;;9.00;3.23;;;13.90;76.80;;;;;;10191458;29;20548;-87
2022/01/31 10:10:49;;;;;;;18.07;5.90;;;14.10;76.40;;;;;;10166043;29;20289;-87
2022/01/31 10:21:23;;;;;;;9.43;4.37;;;14.10;76.90;;;;;;10187531;29;20246;-87
2022/01/31 10:26:34;;;;;;;8.00;3.97;;;14.10;76.90;;;;;;10166463;29;20220;-87
2022/01/31 10:31:38;;;;;;;7.50;3.60;;;13.80;77.70;;;;;;10169116;29;20221;-87
2022/01/31 10:36:42;;;;;;;7.60;3.60;;;13.60;78.40;;;;;;10195018;29;20732;-87
2022/01/31 10:53:02;;;;;;;9.03;3.70;;;13.40;79.50;;;;;;10178671;29;20246;-87
2022/01/31 10:58:09;;;;;;;10.17;3.70;;;13.30;80.50;;;;;;10174384;29;20255;-87
2022/01/31 11:03:26;;;;;;;10.70;3.93;;;11.70;85.50;;;;;;10178923;29;20263;-88
2022/01/31 11:08:28;;;;;;;16.63;5.07;;;13.20;81.30;;;;;;10194737;29;20206;-87
2022/01/31 11:13:36;;;;;;;19.37;6.53;;;13.00;81.80;;;;;;10202125;29;20298;-87
2022/01/31 11:18:43;;;;;;;19.27;5.73;;;12.70;79.90;;;;;;10195138;29;20703;-87
2022/01/31 11:23:50;;;;;;;10.37;3.73;;;12.40;80.20;;;;;;10212124;29;20230;-87
2022/01/31 11:28:54;;;;;;;11.40;3.93;;;12.70;83.20;;;;;;10194905;29;20263;-87
2022/01/31 11:33:58;;;;;;;10.70;4.33;;;13.60;81.50;;;;;;10195167;29;20243;-86
2022/01/31 11:39:04;;;;;;;16.87;5.73;;;13.50;81.20;;;;;;10174235;29;20382;-87
2022/01/31 11:44:24;;;;;;;15.80;4.97;;;12.70;79.50;;;;;;10201092;29;20672;-87
2022/01/31 11:49:44;;;;;;;6.57;3.20;;;13.10;82.30;;;;;;10211720;29;20239;-87
2022/01/31 11:55:07;;;;;;;10.13;4.27;;;13.10;82.80;;;;;;10167100;29;20228;-87
2022/01/31 12:00:12;;;;;;;6.50;3.13;;;12.60;83.60;;;;;;10198497;29;20251;-88
2022/01/31 12:05:24;;;;;;;6.60;3.13;;;13.10;83.50;;;;;;10192990;29;20232;-87
2022/01/31 12:10:32;;;;;;;7.83;3.50;;;11.50;89.50;;;;;;10200835;29;20250;-88
2022/01/31 12:21:59;;;;;;;9.57;4.40;;;12.10;73.00;;;;;;10203492;29;20229;-87
2022/01/31 12:26:29;;;;;;;30.50;8.20;;;11.20;91.80;;;;;;10174977;29;20289;-87
2022/01/31 12:31:34;;;;;;;6.53;3.10;;;9.70;80.90;;;;;;10194407;29;20226;-87
2022/01/31 12:36:37;;;;;;;8.50;3.93;;;10.90;94.90;;;;;;10174842;29;20231;-87
2022/01/31 12:41:40;;;;;;;9.27;3.57;;;11.90;91.70;;;;;;10174691;29;20658;-85
2022/01/31 12:46:50;;;;;;;8.87;3.87;;;12.30;90.70;;;;;;10169082;29;20231;-87
2022/01/31 12:51:59;;;;;;;7.10;2.97;;;12.60;89.70;;;;;;10174371;29;20264;-87
2022/01/31 12:57:11;;;;;;;9.63;5.17;;;12.20;89.60;;;;;;10190425;29;20234;-87
2022/01/31 13:02:14;;;;;;;10.10;4.27;;;12.40;88.30;;;;;;10181201;29;20656;-88
2022/01/31 13:07:18;;;;;;;6.20;3.43;;;12.20;90.30;;;;;;10154340;29;20228;-86
2022/01/31 13:12:36;;;;;;;16.70;5.87;;;12.50;89.60;;;;;;10178271;29;20231;-89
2022/01/31 13:17:42;;;;;;;18.73;5.57;;;12.70;84.60;;;;;;10187317;29;20283;-89
2022/01/31 13:22:45;;;;;;;14.50;6.13;;;12.80;77.50;;;;;;10185353;29;20247;-89
2022/01/31 13:27:47;;;;;;;32.83;8.33;;;12.50;74.20;;;;;;10186946;29;20327;-89
2022/01/31 13:32:51;;;;;;;26.53;6.57;;;9.40;74.80;;;;;;10187647;29;20222;-89
2022/01/31 13:38:08;;;;;;;16.17;5.37;;;8.80;81.20;;;;;;10155521;29;20242;-89
2022/01/31 13:43:27;;;;;;;16.73;5.87;;;10.10;86.80;;;;;;10188381;29;20281;-85
2022/01/31 13:54:22;;;;;;;17.33;5.73;;;12.00;76.80;;;;;;10048536;29;20245;-89
2022/01/31 13:59:27;;;;;;;18.33;5.60;;;12.40;74.30;;;;;;10049335;29;20326;-89
2022/01/31 14:04:34;;;;;;;14.50;5.87;;;11.50;74.10;;;;;;10032452;29;20449;-89
2022/01/31 14:09:36;;;;;;;24.97;7.60;;;11.60;75.30;;;;;;10051176;29;20282;-89
2022/01/31 14:14:38;;;;;;;18.40;6.30;;;10.70;75.30;;;;;;10047342;29;20274;-89
2022/01/31 14:19:41;;;;;;;14.70;5.60;;;10.90;78.00;;;;;;10046218;29;20696;-89
2022/01/31 14:24:46;;;;;;;19.03;6.03;;;11.30;78.00;;;;;;10036262;29;20234;-89
2022/01/31 14:29:58;;;;;;;14.33;6.63;;;11.90;76.50;;;;;;10129153;29;20324;-89
2022/01/31 14:35:06;;;;;;;20.40;6.20;;;11.90;76.20;;;;;;10197520;29;20294;-89
2022/01/31 14:40:26;;;;;;;17.93;6.47;;;12.20;75.80;;;;;;10181829;29;20928;-88
2022/01/31 14:50:50;;;;;;;13.50;5.83;;;12.30;76.00;;;;;;10197819;29;20287;-89
2022/01/31 14:55:56;;;;;;;14.87;6.00;;;12.20;76.20;;;;;;10196031;29;20239;-89
2022/01/31 15:01:02;;;;;;;18.57;6.07;;;11.90;77.70;;;;;;10200135;29;20264;-89
2022/01/31 15:06:05;;;;;;;21.97;6.27;;;12.20;77.00;;;;;;10187022;29;20296;-90
2022/01/31 15:11:09;;;;;;;14.40;5.33;;;12.00;76.90;;;;;;10184432;29;20282;-89
2022/01/31 15:16:15;;;;;;;10.20;5.07;;;11.90;77.70;;;;;;10170671;29;20644;-86
2022/01/31 15:21:18;;;;;;;68.67;15.73;;;11.70;77.60;;;;;;10208647;29;20247;-81
2022/01/31 15:26:21;;;;;;;73.73;16.40;;;11.00;75.90;;;;;;10208301;29;20740;-81
2022/01/31 15:31:24;;;;;;;60.57;17.47;;;11.50;80.30;;;;;;10172431;29;20267;-81
2022/01/31 15:36:46;;;;;;;76.23;16.13;;;11.50;85.30;;;;;;10175524;29;20264;-81
2022/01/31 15:41:52;;;;;;;44.13;12.77;;;11.20;91.10;;;;;;10184958;29;20297;-81
2022/01/31 15:46:57;;;;;;;50.90;14.80;;;11.10;94.90;;;;;;10196001;29;20646;-81
2022/01/31 15:52:00;;;;;;;50.30;14.17;;;10.90;98.70;;;;;;10198040;29;20314;-81
2022/01/31 15:57:02;;;;;;;37.50;12.13;;;11.30;99.90;;;;;;10209264;29;20275;-81
2022/01/31 16:02:08;;;;;;;50.43;12.47;;;11.50;99.90;;;;;;10196520;29;20314;-81
2022/01/31 16:07:11;;;;;;;35.00;10.13;;;11.30;99.90;;;;;;10198246;29;20646;-81
2022/01/31 16:12:14;;;;;;;42.00;12.70;;;11.70;99.90;;;;;;10193950;29;20209;-81
2022/01/31 16:17:33;;;;;;;36.20;13.33;;;11.90;99.90;;;;;;10187670;29;20258;-81
2022/01/31 16:22:36;;;;;;;32.60;12.47;;;12.00;99.90;;;;;;10175421;29;20308;-81
2022/01/31 16:27:42;;;;;;;36.77;11.43;;;11.80;99.90;;;;;;10209638;29;20819;-81
2022/01/31 16:32:46;;;;;;;38.90;12.10;;;12.20;99.90;;;;;;9491887;29;10000730;-81
2022/01/31 16:37:50;;;;;;;27.23;10.03;;;12.80;99.90;;;;;;10172596;29;20236;-81
2022/01/31 16:42:53;;;;;;;24.37;9.63;;;13.30;99.90;;;;;;10187841;29;20306;-81
2022/01/31 16:47:55;;;;;;;25.47;10.27;;;13.50;99.90;;;;;;10204804;29;20273;-81
2022/01/31 16:53:00;;;;;;;22.60;8.47;;;13.80;99.90;;;;;;10188127;29;20235;-81
2022/01/31 16:58:04;;;;;;;25.40;9.57;;;13.90;99.90;;;;;;10205844;29;20233;-81
2022/01/31 17:03:09;;;;;;;31.60;10.97;;;14.00;99.90;;;;;;10187901;29;20262;-81
2022/01/31 17:08:12;;;;;;;19.63;8.53;;;14.00;99.90;;;;;;10204805;29;20233;-81
2022/01/31 17:13:16;;;;;;;26.33;9.93;;;13.90;99.90;;;;;;10187768;29;20246;-81
2022/01/31 17:18:19;;;;;;;50.60;19.47;;;13.60;99.90;;;;;;10205013;29;20270;-81
2022/01/31 17:23:21;;;;;;;21.67;10.23;;;13.40;99.90;;;;;;10204318;29;20254;-81
2022/01/31 17:28:24;;;;;;;23.10;10.43;;;13.60;99.90;;;;;;10187264;29;20321;-81
2022/01/31 17:33:27;;;;;;;23.50;10.23;;;13.30;99.90;;;;;;10186374;29;20234;-81
2022/01/31 17:38:30;;;;;;;18.53;10.17;;;13.00;99.90;;;;;;10206855;29;20284;-81
2022/01/31 17:43:33;;;;;;;22.80;9.70;;;12.70;99.90;;;;;;10190421;29;20249;-81
2022/01/31 17:48:36;;;;;;;33.20;15.20;;;12.40;99.90;;;;;;10208284;29;21009;-83
2022/01/31 17:53:39;;;;;;;24.77;9.47;;;11.20;80.80;;;;;;10199006;29;20303;-82
2022/01/31 17:58:42;;;;;;;19.30;9.20;;;10.80;99.90;;;;;;10175346;29;20668;-82
2022/01/31 18:03:44;;;;;;;22.83;9.07;;;12.10;99.90;;;;;;10176904;29;20255;-83
2022/01/31 18:08:47;;;;;;;13.97;8.60;;;12.40;99.90;;;;;;10172627;29;20253;-82
2022/01/31 18:13:49;;;;;;;15.63;8.57;;;12.90;99.90;;;;;;10192120;29;20235;-82
2022/01/31 18:18:52;;;;;;;19.37;8.97;;;13.00;99.90;;;;;;10168704;29;20236;-82
2022/01/31 18:23:55;;;;;;;22.40;10.70;;;13.10;99.90;;;;;;10181865;29;20309;-83
2022/01/31 18:28:57;;;;;;;37.87;17.70;;;13.20;99.90;;;;;;10173529;29;20302;-83
2022/01/31 18:34:00;;;;;;;25.13;14.07;;;12.50;99.90;;;;;;10173503;29;20285;-83
2022/01/31 18:39:02;;;;;;;23.60;12.00;;;10.10;98.90;;;;;;10169875;29;20246;-83
2022/01/31 18:44:10;;;;;;;15.00;8.30;;;9.40;99.90;;;;;;10194531;29;20269;-83
2022/01/31 18:49:15;;;;;;;41.60;21.10;;;9.80;99.90;;;;;;10178123;29;20700;-82
2022/01/31 18:54:18;;;;;;;27.77;12.40;;;3.60;99.90;;;;;;10185863;29;20659;-83
2022/01/31 18:59:41;;;;;;;15.83;9.67;;;5.50;99.90;;;;;;10188138;29;20235;-83
2022/01/31 19:04:45;;;;;;;18.37;9.70;;;8.40;99.90;;;;;;10188588;29;20227;-83
2022/01/31 19:09:47;;;;;;;27.47;13.07;;;9.40;99.90;;;;;;10189694;29;20226;-83
2022/01/31 19:19:52;;;;;;;15.97;10.13;;;9.30;99.90;;;;;;10190011;29;20283;-84
2022/01/31 19:24:55;;;;;;;20.70;10.97;;;9.90;99.90;;;;;;10158895;29;20221;-84
2022/01/31 19:29:58;;;;;;;18.77;9.37;;;10.10;99.90;;;;;;10171930;29;20355;-83
2022/01/31 19:35:01;;;;;;;14.87;8.63;;;11.20;99.90;;;;;;10194909;29;20598;-83
2022/01/31 19:45:07;;;;;;;41.07;15.40;;;11.80;99.90;;;;;;10172279;29;20293;-83
2022/01/31 19:50:10;;;;;;;17.77;9.70;;;11.00;94.90;;;;;;10160982;29;20299;-83
2022/01/31 19:55:13;;;;;;;25.27;11.83;;;10.40;99.90;;;;;;10177156;29;20286;-83
2022/01/31 20:00:15;;;;;;;31.50;13.87;;;8.20;99.90;;;;;;10193805;29;20270;-83
2022/01/31 20:05:18;;;;;;;32.47;16.97;;;9.20;99.90;;;;;;10177251;29;20247;-84
2022/01/31 20:10:22;;;;;;;17.60;7.23;;;8.00;99.00;;;;;;10178129;29;20653;-83
2022/01/31 20:15:25;;;;;;;28.70;12.67;;;11.00;99.90;;;;;;10178084;29;20231;-83
2022/01/31 20:20:28;;;;;;;15.97;8.87;;;7.70;96.90;;;;;;10191215;29;20278;-83
2022/01/31 20:25:30;;;;;;;23.93;10.67;;;8.30;99.90;;;;;;10192595;29;20846;-83
2022/01/31 20:30:34;;;;;;;39.90;15.83;;;10.90;99.90;;;;;;10196344;29;20309;-83
2022/01/31 20:35:36;;;;;;;19.67;9.30;;;9.80;99.90;;;;;;10189419;29;20231;-83
2022/01/31 20:45:42;;;;;;;21.47;11.20;;;11.50;99.90;;;;;;10186771;29;20273;-83
2022/01/31 20:50:45;;;;;;;16.90;8.60;;;12.00;99.90;;;;;;10210201;29;20243;-83
2022/01/31 20:55:48;;;;;;;17.90;8.10;;;10.50;99.90;;;;;;10193452;29;20635;-83
2022/01/31 21:00:54;;;;;;;20.97;10.93;;;10.70;99.90;;;;;;10193530;29;20246;-83
2022/01/31 21:06:00;;;;;;;34.03;14.83;;;10.50;99.90;;;;;;10177687;29;20234;-83
2022/01/31 21:11:07;;;;;;;44.70;17.63;;;9.00;99.90;;;;;;10210149;29;20238;-82
2022/01/31 21:16:11;;;;;;;20.20;10.43;;;6.80;99.90;;;;;;10208812;29;20611;-83
2022/01/31 21:21:13;;;;;;;50.77;22.77;;;8.10;99.90;;;;;;10192924;29;20254;-83
2022/01/31 21:26:16;;;;;;;34.97;18.53;;;9.00;99.90;;;;;;10204959;29;20222;-82
2022/01/31 21:31:19;;;;;;;21.90;11.03;;;8.40;99.90;;;;;;10185703;29;20203;-83
2022/01/31 21:36:23;;;;;;;22.90;12.87;;;8.50;99.90;;;;;;10186019;29;20203;-83
2022/01/31 21:41:25;;;;;;;27.73;18.13;;;9.10;99.90;;;;;;10174586;29;20258;-83
2022/01/31 21:46:28;;;;;;;36.97;16.23;;;8.20;99.90;;;;;;10172462;29;20230;-83
2022/01/31 21:51:31;;;;;;;22.80;11.23;;;8.10;99.90;;;;;;10183047;29;20219;-84
2022/01/31 21:56:33;;;;;;;15.10;9.00;;;8.90;99.90;;;;;;10193415;29;20585;-83
2022/01/31 22:01:36;;;;;;;12.77;8.47;;;10.30;99.90;;;;;;10195337;29;20219;-84
2022/01/31 22:06:38;;;;;;;12.57;8.70;;;10.90;99.90;;;;;;10201471;29;20235;-84
2022/01/31 22:11:41;;;;;;;12.37;8.00;;;10.80;99.90;;;;;;10209833;29;20200;-84
2022/01/31 22:16:44;;;;;;;14.37;8.53;;;11.00;99.90;;;;;;10250718;28;20179;-84
2022/01/31 22:21:47;;;;;;;13.97;8.53;;;11.20;99.90;;;;;;10245913;28;20226;-84
2022/01/31 22:26:49;;;;;;;14.80;8.57;;;11.60;99.90;;;;;;10261760;28;20218;-84
2022/01/31 22:31:55;;;;;;;14.67;8.90;;;11.40;99.90;;;;;;10261551;28;20179;-84
2022/01/31 22:36:58;;;;;;;14.27;7.90;;;11.10;99.90;;;;;;10260980;28;20203;-84
2022/01/31 22:42:04;;;;;;;19.73;11.47;;;11.30;99.90;;;;;;10244930;28;20231;-84
2022/01/31 22:47:07;;;;;;;14.67;8.73;;;11.30;99.90;;;;;;10267684;28;20206;-84
2022/01/31 22:52:09;;;;;;;17.20;10.23;;;11.50;99.90;;;;;;10252325;28;20182;-84
2022/01/31 22:57:12;;;;;;;13.77;7.83;;;11.70;99.90;;;;;;10252424;28;20183;-84
2022/01/31 23:02:15;;;;;;;13.10;8.30;;;11.70;99.90;;;;;;10253615;28;20232;-83
2022/01/31 23:07:17;;;;;;;15.40;9.80;;;12.00;99.90;;;;;;10254236;28;20205;-84
2022/01/31 23:12:23;;;;;;;18.03;9.73;;;11.70;99.90;;;;;;10254391;28;20181;-84
2022/01/31 23:17:36;;;;;;;11.90;8.07;;;11.60;99.90;;;;;;10270430;28;20186;-84
2022/01/31 23:54:40;;;;;;;13.20;9.40;;;12.50;99.90;;;;;;10219342;29;20277;-84
